sensor_id;sensor_type;location;lat;lon;timestamp;P1;durP1;ratioP1;P2;durP2;ratioP2
51614;SDS011;37695;52.960;6.188;2023-04-24T00:01:13;1.83;;;1.35;;
51614;SDS011;37695;52.960;6.188;2023-04-24T00:03:40;1.45;;;1.20;;
51614;SDS011;37695;52.960;6.188;2023-04-24T00:06:06;2.10;;;1.30;;
51614;SDS011;37695;52.960;6.188;2023-04-24T00:08:33;1.30;;;1.20;;
51614;SDS011;37695;52.960;6.188;2023-04-24T00:10:59;1.55;;;1.30;;
51614;SDS011;37695;52.960;6.188;2023-04-24T00:13:25;2.10;;;1.45;;
51614;SDS011;37695;52.960;6.188;2023-04-24T00:15:51;2.53;;;1.60;;
51614;SDS011;37695;52.960;6.188;2023-04-24T00:18:16;1.40;;;1.30;;
51614;SDS011;37695;52.960;6.188;2023-04-24T00:20:42;1.58;;;1.40;;
51614;SDS011;37695;52.960;6.188;2023-04-24T00:23:08;1.65;;;1.20;;
51614;SDS011;37695;52.960;6.188;2023-04-24T00:25:34;1.10;;;1.00;;
51614;SDS011;37695;52.960;6.188;2023-04-24T00:28:00;3.88;;;1.10;;
51614;SDS011;37695;52.960;6.188;2023-04-24T00:30:26;1.85;;;1.20;;
51614;SDS011;37695;52.960;6.188;2023-04-24T00:32:51;1.27;;;1.17;;
51614;SDS011;37695;52.960;6.188;2023-04-24T00:35:17;1.33;;;1.23;;
51614;SDS011;37695;52.960;6.188;2023-04-24T00:37:44;3.22;;;1.10;;
51614;SDS011;37695;52.960;6.188;2023-04-24T00:40:10;1.08;;;1.05;;
51614;SDS011;37695;52.960;6.188;2023-04-24T00:42:36;0.98;;;0.90;;
51614;SDS011;37695;52.960;6.188;2023-04-24T00:45:02;0.95;;;0.95;;
51614;SDS011;37695;52.960;6.188;2023-04-24T00:47:29;1.48;;;1.10;;
51614;SDS011;37695;52.960;6.188;2023-04-24T00:49:55;1.05;;;0.90;;
51614;SDS011;37695;52.960;6.188;2023-04-24T00:52:20;1.02;;;0.90;;
51614;SDS011;37695;52.960;6.188;2023-04-24T00:54:49;1.45;;;1.08;;
51614;SDS011;37695;52.960;6.188;2023-04-24T00:57:15;0.88;;;0.88;;
51614;SDS011;37695;52.960;6.188;2023-04-24T00:59:41;1.17;;;1.00;;
51614;SDS011;37695;52.960;6.188;2023-04-24T01:02:08;1.08;;;1.00;;
51614;SDS011;37695;52.960;6.188;2023-04-24T01:04:35;2.00;;;1.08;;
51614;SDS011;37695;52.960;6.188;2023-04-24T01:07:02;1.20;;;1.10;;
51614;SDS011;37695;52.960;6.188;2023-04-24T01:09:29;1.20;;;1.10;;
51614;SDS011;37695;52.960;6.188;2023-04-24T01:11:55;2.28;;;1.17;;
51614;SDS011;37695;52.960;6.188;2023-04-24T01:14:21;1.13;;;1.02;;
51614;SDS011;37695;52.960;6.188;2023-04-24T01:16:47;1.20;;;1.10;;
51614;SDS011;37695;52.960;6.188;2023-04-24T01:19:13;2.35;;;1.15;;
51614;SDS011;37695;52.960;6.188;2023-04-24T01:21:40;2.28;;;1.35;;
51614;SDS011;37695;52.960;6.188;2023-04-24T01:24:08;1.25;;;1.13;;
51614;SDS011;37695;52.960;6.188;2023-04-24T01:26:33;1.30;;;1.15;;
51614;SDS011;37695;52.960;6.188;2023-04-24T01:28:59;2.72;;;1.30;;
51614;SDS011;37695;52.960;6.188;2023-04-24T01:31:25;1.20;;;1.10;;
51614;SDS011;37695;52.960;6.188;2023-04-24T01:33:51;1.38;;;1.20;;
51614;SDS011;37695;52.960;6.188;2023-04-24T01:36:17;1.58;;;1.30;;
51614;SDS011;37695;52.960;6.188;2023-04-24T01:38:43;2.67;;;1.40;;
51614;SDS011;37695;52.960;6.188;2023-04-24T01:41:09;1.58;;;1.48;;
51614;SDS011;37695;52.960;6.188;2023-04-24T01:43:35;1.52;;;1.42;;
51614;SDS011;37695;52.960;6.188;2023-04-24T01:46:01;3.15;;;1.45;;
51614;SDS011;37695;52.960;6.188;2023-04-24T01:48:26;1.98;;;1.67;;
51614;SDS011;37695;52.960;6.188;2023-04-24T01:50:52;2.88;;;2.08;;
51614;SDS011;37695;52.960;6.188;2023-04-24T01:53:17;2.63;;;2.00;;
51614;SDS011;37695;52.960;6.188;2023-04-24T01:55:43;2.83;;;2.05;;
51614;SDS011;37695;52.960;6.188;2023-04-24T01:58:09;2.50;;;2.05;;
51614;SDS011;37695;52.960;6.188;2023-04-24T02:00:34;2.80;;;2.28;;
51614;SDS011;37695;52.960;6.188;2023-04-24T02:03:00;3.20;;;2.40;;
51614;SDS011;37695;52.960;6.188;2023-04-24T02:05:26;5.57;;;2.80;;
51614;SDS011;37695;52.960;6.188;2023-04-24T02:07:52;3.45;;;2.80;;
51614;SDS011;37695;52.960;6.188;2023-04-24T02:10:19;3.45;;;2.85;;
51614;SDS011;37695;52.960;6.188;2023-04-24T02:12:44;3.90;;;3.05;;
51614;SDS011;37695;52.960;6.188;2023-04-24T02:15:10;3.88;;;3.03;;
51614;SDS011;37695;52.960;6.188;2023-04-24T02:17:36;4.90;;;3.63;;
51614;SDS011;37695;52.960;6.188;2023-04-24T02:20:01;4.30;;;3.42;;
51614;SDS011;37695;52.960;6.188;2023-04-24T02:22:27;4.55;;;3.22;;
51614;SDS011;37695;52.960;6.188;2023-04-24T02:24:52;4.85;;;4.05;;
51614;SDS011;37695;52.960;6.188;2023-04-24T02:27:18;4.63;;;3.92;;
51614;SDS011;37695;52.960;6.188;2023-04-24T02:29:43;5.55;;;4.53;;
51614;SDS011;37695;52.960;6.188;2023-04-24T02:32:09;5.60;;;4.65;;
51614;SDS011;37695;52.960;6.188;2023-04-24T02:34:37;5.28;;;4.45;;
51614;SDS011;37695;52.960;6.188;2023-04-24T02:37:02;5.40;;;4.72;;
51614;SDS011;37695;52.960;6.188;2023-04-24T02:39:28;6.43;;;4.55;;
51614;SDS011;37695;52.960;6.188;2023-04-24T02:41:54;7.53;;;4.93;;
51614;SDS011;37695;52.960;6.188;2023-04-24T02:44:19;5.22;;;4.25;;
51614;SDS011;37695;52.960;6.188;2023-04-24T02:46:46;6.68;;;4.93;;
51614;SDS011;37695;52.960;6.188;2023-04-24T02:49:12;6.55;;;5.35;;
51614;SDS011;37695;52.960;6.188;2023-04-24T02:51:37;6.85;;;4.97;;
51614;SDS011;37695;52.960;6.188;2023-04-24T02:54:05;6.00;;;4.57;;
51614;SDS011;37695;52.960;6.188;2023-04-24T02:56:32;5.70;;;5.00;;
51614;SDS011;37695;52.960;6.188;2023-04-24T02:58:57;5.93;;;5.28;;
51614;SDS011;37695;52.960;6.188;2023-04-24T03:01:23;7.28;;;4.70;;
51614;SDS011;37695;52.960;6.188;2023-04-24T03:03:48;6.47;;;5.00;;
51614;SDS011;37695;52.960;6.188;2023-04-24T03:06:14;6.07;;;4.95;;
51614;SDS011;37695;52.960;6.188;2023-04-24T03:08:40;6.90;;;5.03;;
51614;SDS011;37695;52.960;6.188;2023-04-24T03:11:06;5.95;;;5.00;;
51614;SDS011;37695;52.960;6.188;2023-04-24T03:13:31;5.38;;;4.50;;
51614;SDS011;37695;52.960;6.188;2023-04-24T03:15:57;6.15;;;4.68;;
51614;SDS011;37695;52.960;6.188;2023-04-24T03:18:22;6.10;;;4.63;;
51614;SDS011;37695;52.960;6.188;2023-04-24T03:20:48;5.65;;;4.70;;
51614;SDS011;37695;52.960;6.188;2023-04-24T03:23:13;5.47;;;4.55;;
51614;SDS011;37695;52.960;6.188;2023-04-24T03:25:39;5.75;;;4.30;;
51614;SDS011;37695;52.960;6.188;2023-04-24T03:28:05;6.20;;;4.60;;
51614;SDS011;37695;52.960;6.188;2023-04-24T03:30:31;5.78;;;4.28;;
51614;SDS011;37695;52.960;6.188;2023-04-24T03:32:56;5.38;;;4.55;;
51614;SDS011;37695;52.960;6.188;2023-04-24T03:35:22;5.82;;;4.60;;
51614;SDS011;37695;52.960;6.188;2023-04-24T03:37:48;5.65;;;3.97;;
51614;SDS011;37695;52.960;6.188;2023-04-24T03:40:13;5.70;;;4.07;;
51614;SDS011;37695;52.960;6.188;2023-04-24T03:42:39;5.30;;;3.90;;
51614;SDS011;37695;52.960;6.188;2023-04-24T03:45:04;5.45;;;3.97;;
51614;SDS011;37695;52.960;6.188;2023-04-24T03:47:30;5.47;;;4.22;;
51614;SDS011;37695;52.960;6.188;2023-04-24T03:49:56;4.80;;;3.83;;
51614;SDS011;37695;52.960;6.188;2023-04-24T03:52:22;5.43;;;3.67;;
51614;SDS011;37695;52.960;6.188;2023-04-24T03:54:47;5.45;;;4.05;;
51614;SDS011;37695;52.960;6.188;2023-04-24T03:57:13;4.90;;;3.80;;
51614;SDS011;37695;52.960;6.188;2023-04-24T03:59:38;4.80;;;3.63;;
51614;SDS011;37695;52.960;6.188;2023-04-24T04:02:04;5.57;;;4.15;;
51614;SDS011;37695;52.960;6.188;2023-04-24T04:04:30;6.03;;;4.38;;
51614;SDS011;37695;52.960;6.188;2023-04-24T04:06:55;6.00;;;4.20;;
51614;SDS011;37695;52.960;6.188;2023-04-24T04:09:21;5.57;;;4.63;;
51614;SDS011;37695;52.960;6.188;2023-04-24T04:11:46;5.20;;;4.10;;
51614;SDS011;37695;52.960;6.188;2023-04-24T04:14:12;5.30;;;4.57;;
51614;SDS011;37695;52.960;6.188;2023-04-24T04:16:37;6.03;;;4.57;;
51614;SDS011;37695;52.960;6.188;2023-04-24T04:19:03;5.28;;;4.45;;
51614;SDS011;37695;52.960;6.188;2023-04-24T04:21:28;4.03;;;3.22;;
51614;SDS011;37695;52.960;6.188;2023-04-24T04:23:55;4.47;;;3.30;;
51614;SDS011;37695;52.960;6.188;2023-04-24T04:26:21;4.47;;;3.20;;
51614;SDS011;37695;52.960;6.188;2023-04-24T04:28:50;2.17;;;1.83;;
51614;SDS011;37695;52.960;6.188;2023-04-24T04:31:16;1.92;;;1.55;;
51614;SDS011;37695;52.960;6.188;2023-04-24T04:33:42;1.50;;;1.40;;
51614;SDS011;37695;52.960;6.188;2023-04-24T04:36:07;1.40;;;1.30;;
51614;SDS011;37695;52.960;6.188;2023-04-24T04:38:33;2.42;;;1.00;;
51614;SDS011;37695;52.960;6.188;2023-04-24T04:41:00;0.73;;;0.73;;
51614;SDS011;37695;52.960;6.188;2023-04-24T04:43:25;1.70;;;1.17;;
51614;SDS011;37695;52.960;6.188;2023-04-24T04:45:51;0.77;;;0.77;;
51614;SDS011;37695;52.960;6.188;2023-04-24T04:48:17;1.05;;;0.98;;
51614;SDS011;37695;52.960;6.188;2023-04-24T04:50:43;1.63;;;1.17;;
51614;SDS011;37695;52.960;6.188;2023-04-24T04:53:09;1.20;;;1.10;;
51614;SDS011;37695;52.960;6.188;2023-04-24T04:55:35;1.40;;;1.30;;
51614;SDS011;37695;52.960;6.188;2023-04-24T04:58:01;1.67;;;1.50;;
51614;SDS011;37695;52.960;6.188;2023-04-24T05:00:27;1.70;;;1.20;;
51614;SDS011;37695;52.960;6.188;2023-04-24T05:02:54;2.00;;;1.50;;
51614;SDS011;37695;52.960;6.188;2023-04-24T05:05:19;1.95;;;1.60;;
51614;SDS011;37695;52.960;6.188;2023-04-24T05:07:45;2.22;;;1.70;;
51614;SDS011;37695;52.960;6.188;2023-04-24T05:10:10;3.13;;;1.73;;
51614;SDS011;37695;52.960;6.188;2023-04-24T05:12:36;2.45;;;2.00;;
51614;SDS011;37695;52.960;6.188;2023-04-24T05:15:02;2.35;;;1.88;;
51614;SDS011;37695;52.960;6.188;2023-04-24T05:17:28;2.80;;;2.20;;
51614;SDS011;37695;52.960;6.188;2023-04-24T05:19:54;3.70;;;2.15;;
51614;SDS011;37695;52.960;6.188;2023-04-24T05:22:20;2.75;;;1.90;;
51614;SDS011;37695;52.960;6.188;2023-04-24T05:24:46;4.35;;;2.25;;
51614;SDS011;37695;52.960;6.188;2023-04-24T05:27:12;3.22;;;2.47;;
51614;SDS011;37695;52.960;6.188;2023-04-24T05:29:38;4.15;;;2.38;;
51614;SDS011;37695;52.960;6.188;2023-04-24T05:32:05;3.10;;;2.50;;
51614;SDS011;37695;52.960;6.188;2023-04-24T05:34:30;4.78;;;2.55;;
51614;SDS011;37695;52.960;6.188;2023-04-24T05:36:56;4.32;;;2.83;;
51614;SDS011;37695;52.960;6.188;2023-04-24T05:39:22;4.53;;;2.75;;
51614;SDS011;37695;52.960;6.188;2023-04-24T05:41:49;4.72;;;2.72;;
51614;SDS011;37695;52.960;6.188;2023-04-24T05:44:15;4.32;;;2.53;;
51614;SDS011;37695;52.960;6.188;2023-04-24T05:46:41;3.97;;;2.40;;
51614;SDS011;37695;52.960;6.188;2023-04-24T05:49:06;5.75;;;2.92;;
51614;SDS011;37695;52.960;6.188;2023-04-24T05:51:32;7.30;;;2.58;;
51614;SDS011;37695;52.960;6.188;2023-04-24T05:53:57;5.60;;;2.50;;
51614;SDS011;37695;52.960;6.188;2023-04-24T05:56:23;3.92;;;2.67;;
51614;SDS011;37695;52.960;6.188;2023-04-24T05:58:48;9.18;;;3.03;;
51614;SDS011;37695;52.960;6.188;2023-04-24T06:01:14;4.57;;;3.10;;
51614;SDS011;37695;52.960;6.188;2023-04-24T06:03:40;4.85;;;2.83;;
51614;SDS011;37695;52.960;6.188;2023-04-24T06:06:06;6.22;;;3.22;;
51614;SDS011;37695;52.960;6.188;2023-04-24T06:08:32;7.60;;;3.33;;
51614;SDS011;37695;52.960;6.188;2023-04-24T06:10:58;4.25;;;2.70;;
51614;SDS011;37695;52.960;6.188;2023-04-24T06:13:24;4.75;;;3.03;;
51614;SDS011;37695;52.960;6.188;2023-04-24T06:15:49;4.85;;;2.60;;
51614;SDS011;37695;52.960;6.188;2023-04-24T06:18:15;4.45;;;2.60;;
51614;SDS011;37695;52.960;6.188;2023-04-24T06:20:41;4.38;;;2.38;;
51614;SDS011;37695;52.960;6.188;2023-04-24T06:23:07;3.88;;;2.38;;
51614;SDS011;37695;52.960;6.188;2023-04-24T06:25:32;3.55;;;2.25;;
51614;SDS011;37695;52.960;6.188;2023-04-24T06:27:58;4.05;;;2.58;;
51614;SDS011;37695;52.960;6.188;2023-04-24T06:30:24;3.13;;;2.10;;
51614;SDS011;37695;52.960;6.188;2023-04-24T06:32:50;3.67;;;2.13;;
51614;SDS011;37695;52.960;6.188;2023-04-24T06:35:16;3.50;;;2.00;;
51614;SDS011;37695;52.960;6.188;2023-04-24T06:37:42;2.38;;;1.63;;
51614;SDS011;37695;52.960;6.188;2023-04-24T06:40:08;6.10;;;1.95;;
51614;SDS011;37695;52.960;6.188;2023-04-24T06:42:33;2.50;;;1.67;;
51614;SDS011;37695;52.960;6.188;2023-04-24T06:45:00;2.83;;;1.75;;
51614;SDS011;37695;52.960;6.188;2023-04-24T06:47:26;3.15;;;1.73;;
51614;SDS011;37695;52.960;6.188;2023-04-24T06:49:51;6.10;;;1.88;;
51614;SDS011;37695;52.960;6.188;2023-04-24T06:52:17;3.83;;;1.73;;
51614;SDS011;37695;52.960;6.188;2023-04-24T06:54:43;6.80;;;1.60;;
51614;SDS011;37695;52.960;6.188;2023-04-24T06:57:09;3.22;;;1.60;;
51614;SDS011;37695;52.960;6.188;2023-04-24T06:59:35;3.40;;;1.63;;
51614;SDS011;37695;52.960;6.188;2023-04-24T07:02:01;2.92;;;1.63;;
51614;SDS011;37695;52.960;6.188;2023-04-24T07:04:27;3.90;;;1.77;;
51614;SDS011;37695;52.960;6.188;2023-04-24T07:06:53;4.65;;;1.73;;
51614;SDS011;37695;52.960;6.188;2023-04-24T07:09:20;5.80;;;1.70;;
51614;SDS011;37695;52.960;6.188;2023-04-24T07:11:47;4.65;;;1.73;;
51614;SDS011;37695;52.960;6.188;2023-04-24T07:14:13;3.53;;;1.70;;
51614;SDS011;37695;52.960;6.188;2023-04-24T07:16:38;3.03;;;1.85;;
51614;SDS011;37695;52.960;6.188;2023-04-24T07:19:04;3.92;;;1.90;;
51614;SDS011;37695;52.960;6.188;2023-04-24T07:21:30;3.25;;;1.50;;
51614;SDS011;37695;52.960;6.188;2023-04-24T07:23:57;2.55;;;1.50;;
51614;SDS011;37695;52.960;6.188;2023-04-24T07:26:23;7.20;;;1.90;;
51614;SDS011;37695;52.960;6.188;2023-04-24T07:28:48;6.07;;;1.95;;
51614;SDS011;37695;52.960;6.188;2023-04-24T07:31:14;6.28;;;1.92;;
51614;SDS011;37695;52.960;6.188;2023-04-24T07:33:40;5.70;;;2.47;;
51614;SDS011;37695;52.960;6.188;2023-04-24T07:36:05;5.35;;;2.70;;
51614;SDS011;37695;52.960;6.188;2023-04-24T07:38:31;8.40;;;3.63;;
51614;SDS011;37695;52.960;6.188;2023-04-24T07:40:57;9.07;;;4.25;;
51614;SDS011;37695;52.960;6.188;2023-04-24T07:43:22;8.32;;;4.57;;
51614;SDS011;37695;52.960;6.188;2023-04-24T07:45:49;10.13;;;5.70;;
51614;SDS011;37695;52.960;6.188;2023-04-24T07:48:15;14.23;;;6.88;;
51614;SDS011;37695;52.960;6.188;2023-04-24T07:50:42;13.68;;;7.18;;
51614;SDS011;37695;52.960;6.188;2023-04-24T07:53:08;9.73;;;7.18;;
51614;SDS011;37695;52.960;6.188;2023-04-24T07:55:34;12.25;;;7.80;;
51614;SDS011;37695;52.960;6.188;2023-04-24T07:57:59;13.98;;;7.00;;
51614;SDS011;37695;52.960;6.188;2023-04-24T08:00:25;12.43;;;6.93;;
51614;SDS011;37695;52.960;6.188;2023-04-24T08:02:51;11.38;;;6.47;;
51614;SDS011;37695;52.960;6.188;2023-04-24T08:05:16;13.38;;;6.80;;
51614;SDS011;37695;52.960;6.188;2023-04-24T08:07:42;15.15;;;6.72;;
51614;SDS011;37695;52.960;6.188;2023-04-24T08:10:09;10.98;;;6.30;;
51614;SDS011;37695;52.960;6.188;2023-04-24T08:12:35;14.27;;;7.38;;
51614;SDS011;37695;52.960;6.188;2023-04-24T08:15:01;13.48;;;7.03;;
51614;SDS011;37695;52.960;6.188;2023-04-24T08:17:27;11.90;;;8.20;;
51614;SDS011;37695;52.960;6.188;2023-04-24T08:19:52;14.65;;;8.65;;
51614;SDS011;37695;52.960;6.188;2023-04-24T08:22:24;15.20;;;8.45;;
51614;SDS011;37695;52.960;6.188;2023-04-24T08:24:49;13.85;;;8.52;;
51614;SDS011;37695;52.960;6.188;2023-04-24T08:27:15;15.48;;;8.65;;
51614;SDS011;37695;52.960;6.188;2023-04-24T08:29:40;14.30;;;8.95;;
51614;SDS011;37695;52.960;6.188;2023-04-24T08:32:06;13.23;;;8.68;;
51614;SDS011;37695;52.960;6.188;2023-04-24T08:34:32;12.57;;;8.27;;
51614;SDS011;37695;52.960;6.188;2023-04-24T08:36:57;13.13;;;7.10;;
51614;SDS011;37695;52.960;6.188;2023-04-24T08:39:23;11.35;;;7.40;;
51614;SDS011;37695;52.960;6.188;2023-04-24T08:41:48;11.50;;;6.20;;
51614;SDS011;37695;52.960;6.188;2023-04-24T08:44:17;12.95;;;6.53;;
51614;SDS011;37695;52.960;6.188;2023-04-24T08:46:44;8.82;;;5.75;;
51614;SDS011;37695;52.960;6.188;2023-04-24T08:49:11;9.90;;;5.97;;
51614;SDS011;37695;52.960;6.188;2023-04-24T08:51:43;11.73;;;5.40;;
51614;SDS011;37695;52.960;6.188;2023-04-24T08:54:11;9.07;;;5.15;;
51614;SDS011;37695;52.960;6.188;2023-04-24T08:56:37;8.85;;;5.45;;
51614;SDS011;37695;52.960;6.188;2023-04-24T08:59:05;8.23;;;5.28;;
51614;SDS011;37695;52.960;6.188;2023-04-24T09:01:32;9.63;;;4.65;;
51614;SDS011;37695;52.960;6.188;2023-04-24T09:03:58;6.53;;;4.50;;
51614;SDS011;37695;52.960;6.188;2023-04-24T09:06:27;10.30;;;4.75;;
51614;SDS011;37695;52.960;6.188;2023-04-24T09:08:53;8.63;;;4.97;;
51614;SDS011;37695;52.960;6.188;2023-04-24T09:11:20;9.13;;;4.63;;
51614;SDS011;37695;52.960;6.188;2023-04-24T09:13:49;9.40;;;5.05;;
51614;SDS011;37695;52.960;6.188;2023-04-24T09:16:15;9.77;;;4.22;;
51614;SDS011;37695;52.960;6.188;2023-04-24T09:18:41;9.38;;;4.65;;
51614;SDS011;37695;52.960;6.188;2023-04-24T09:21:07;9.05;;;4.53;;
51614;SDS011;37695;52.960;6.188;2023-04-24T09:23:34;9.30;;;4.53;;
51614;SDS011;37695;52.960;6.188;2023-04-24T09:26:00;5.85;;;3.92;;
51614;SDS011;37695;52.960;6.188;2023-04-24T09:28:31;8.85;;;4.13;;
51614;SDS011;37695;52.960;6.188;2023-04-24T09:33:32;10.77;;;4.43;;
51614;SDS011;37695;52.960;6.188;2023-04-24T09:35:58;8.98;;;4.03;;
51614;SDS011;37695;52.960;6.188;2023-04-24T09:38:57;9.00;;;4.10;;
51614;SDS011;37695;52.960;6.188;2023-04-24T09:41:18;7.70;;;3.30;;
51614;SDS011;37695;52.960;6.188;2023-04-24T09:43:44;6.68;;;3.22;;
51614;SDS011;37695;52.960;6.188;2023-04-24T09:46:10;7.05;;;3.40;;
51614;SDS011;37695;52.960;6.188;2023-04-24T09:48:36;8.40;;;3.20;;
51614;SDS011;37695;52.960;6.188;2023-04-24T09:51:03;7.60;;;3.25;;
51614;SDS011;37695;52.960;6.188;2023-04-24T09:53:31;6.95;;;3.08;;
51614;SDS011;37695;52.960;6.188;2023-04-24T09:56:15;7.40;;;3.38;;
51614;SDS011;37695;52.960;6.188;2023-04-24T09:58:41;8.80;;;3.58;;
51614;SDS011;37695;52.960;6.188;2023-04-24T10:01:06;7.80;;;2.90;;
51614;SDS011;37695;52.960;6.188;2023-04-24T10:03:33;8.10;;;2.75;;
51614;SDS011;37695;52.960;6.188;2023-04-24T10:05:59;9.15;;;3.60;;
51614;SDS011;37695;52.960;6.188;2023-04-24T10:08:25;8.13;;;2.83;;
51614;SDS011;37695;52.960;6.188;2023-04-24T10:10:57;8.23;;;2.55;;
51614;SDS011;37695;52.960;6.188;2023-04-24T10:13:23;10.63;;;3.03;;
51614;SDS011;37695;52.960;6.188;2023-04-24T10:15:49;6.97;;;2.42;;
51614;SDS011;37695;52.960;6.188;2023-04-24T10:18:15;8.85;;;2.97;;
51614;SDS011;37695;52.960;6.188;2023-04-24T10:20:41;8.95;;;2.80;;
51614;SDS011;37695;52.960;6.188;2023-04-24T10:23:07;3.78;;;1.73;;
51614;SDS011;37695;52.960;6.188;2023-04-24T10:25:33;10.73;;;2.67;;
51614;SDS011;37695;52.960;6.188;2023-04-24T10:28:00;5.80;;;2.60;;
51614;SDS011;37695;52.960;6.188;2023-04-24T10:30:28;8.10;;;2.47;;
51614;SDS011;37695;52.960;6.188;2023-04-24T10:33:01;5.83;;;2.10;;
51614;SDS011;37695;52.960;6.188;2023-04-24T10:35:30;8.27;;;2.78;;
51614;SDS011;37695;52.960;6.188;2023-04-24T10:37:58;10.20;;;2.60;;
51614;SDS011;37695;52.960;6.188;2023-04-24T10:40:30;8.82;;;2.50;;
51614;SDS011;37695;52.960;6.188;2023-04-24T10:42:59;9.10;;;2.30;;
51614;SDS011;37695;52.960;6.188;2023-04-24T10:45:27;8.52;;;2.60;;
51614;SDS011;37695;52.960;6.188;2023-04-24T10:47:57;6.82;;;2.10;;
51614;SDS011;37695;52.960;6.188;2023-04-24T10:50:27;8.70;;;2.20;;
51614;SDS011;37695;52.960;6.188;2023-04-24T10:53:04;8.73;;;2.22;;
51614;SDS011;37695;52.960;6.188;2023-04-24T10:58:10;5.55;;;1.88;;
51614;SDS011;37695;52.960;6.188;2023-04-24T11:00:37;5.90;;;2.40;;
51614;SDS011;37695;52.960;6.188;2023-04-24T11:03:04;9.27;;;2.10;;
51614;SDS011;37695;52.960;6.188;2023-04-24T11:05:58;10.00;;;2.72;;
51614;SDS011;37695;52.960;6.188;2023-04-24T11:08:30;7.45;;;2.30;;
51614;SDS011;37695;52.960;6.188;2023-04-24T11:11:00;6.82;;;1.95;;
51614;SDS011;37695;52.960;6.188;2023-04-24T11:19:00;7.88;;;2.50;;
51614;SDS011;37695;52.960;6.188;2023-04-24T11:21:31;8.65;;;2.20;;
51614;SDS011;37695;52.960;6.188;2023-04-24T11:29:39;3.60;;;1.45;;
51614;SDS011;37695;52.960;6.188;2023-04-24T11:32:33;3.42;;;1.42;;
51614;SDS011;37695;52.960;6.188;2023-04-24T11:37:39;6.70;;;1.90;;
51614;SDS011;37695;52.960;6.188;2023-04-24T11:40:07;3.92;;;1.83;;
51614;SDS011;37695;52.960;6.188;2023-04-24T11:42:37;5.35;;;1.77;;
51614;SDS011;37695;52.960;6.188;2023-04-24T11:45:08;2.95;;;1.40;;
51614;SDS011;37695;52.960;6.188;2023-04-24T11:47:34;6.68;;;1.85;;
51614;SDS011;37695;52.960;6.188;2023-04-24T11:50:00;4.82;;;1.85;;
51614;SDS011;37695;52.960;6.188;2023-04-24T11:52:27;2.55;;;1.33;;
51614;SDS011;37695;52.960;6.188;2023-04-24T11:54:53;3.47;;;1.48;;
51614;SDS011;37695;52.960;6.188;2023-04-24T11:57:19;6.05;;;1.70;;
51614;SDS011;37695;52.960;6.188;2023-04-24T11:59:46;4.95;;;1.70;;
51614;SDS011;37695;52.960;6.188;2023-04-24T12:02:22;3.50;;;1.25;;
51614;SDS011;37695;52.960;6.188;2023-04-24T12:04:51;4.70;;;1.25;;
51614;SDS011;37695;52.960;6.188;2023-04-24T12:07:18;3.80;;;1.45;;
51614;SDS011;37695;52.960;6.188;2023-04-24T12:09:44;3.05;;;1.40;;
51614;SDS011;37695;52.960;6.188;2023-04-24T12:12:12;4.03;;;1.33;;
51614;SDS011;37695;52.960;6.188;2023-04-24T12:14:48;7.78;;;3.08;;
51614;SDS011;37695;52.960;6.188;2023-04-24T12:17:15;2.47;;;1.10;;
51614;SDS011;37695;52.960;6.188;2023-04-24T12:19:48;2.72;;;1.33;;
51614;SDS011;37695;52.960;6.188;2023-04-24T12:22:14;3.10;;;1.15;;
51614;SDS011;37695;52.960;6.188;2023-04-24T12:24:55;2.25;;;1.02;;
51614;SDS011;37695;52.960;6.188;2023-04-24T12:27:22;3.50;;;1.30;;
51614;SDS011;37695;52.960;6.188;2023-04-24T12:29:56;2.10;;;1.10;;
51614;SDS011;37695;52.960;6.188;2023-04-24T12:32:23;4.13;;;1.42;;
51614;SDS011;37695;52.960;6.188;2023-04-24T12:34:52;4.55;;;1.20;;
51614;SDS011;37695;52.960;6.188;2023-04-24T12:37:19;4.50;;;1.23;;
51614;SDS011;37695;52.960;6.188;2023-04-24T12:42:27;3.65;;;1.38;;
51614;SDS011;37695;52.960;6.188;2023-04-24T12:44:57;5.57;;;1.15;;
51614;SDS011;37695;52.960;6.188;2023-04-24T12:47:27;4.63;;;1.30;;
51614;SDS011;37695;52.960;6.188;2023-04-24T12:49:53;6.10;;;1.27;;
51614;SDS011;37695;52.960;6.188;2023-04-24T12:52:20;3.30;;;1.10;;
51614;SDS011;37695;52.960;6.188;2023-04-24T12:54:46;4.25;;;1.23;;
51614;SDS011;37695;52.960;6.188;2023-04-24T12:57:12;3.25;;;1.20;;
51614;SDS011;37695;52.960;6.188;2023-04-24T12:59:38;2.33;;;1.20;;
51614;SDS011;37695;52.960;6.188;2023-04-24T13:02:04;3.10;;;1.45;;
51614;SDS011;37695;52.960;6.188;2023-04-24T13:04:31;1.92;;;1.00;;
51614;SDS011;37695;52.960;6.188;2023-04-24T13:06:57;1.98;;;0.90;;
51614;SDS011;37695;52.960;6.188;2023-04-24T13:09:22;2.65;;;1.10;;
51614;SDS011;37695;52.960;6.188;2023-04-24T13:11:49;5.25;;;1.33;;
51614;SDS011;37695;52.960;6.188;2023-04-24T13:14:15;2.97;;;1.15;;
51614;SDS011;37695;52.960;6.188;2023-04-24T13:16:40;3.45;;;1.35;;
51614;SDS011;37695;52.960;6.188;2023-04-24T13:19:06;4.07;;;1.27;;
51614;SDS011;37695;52.960;6.188;2023-04-24T13:21:31;4.82;;;1.33;;
51614;SDS011;37695;52.960;6.188;2023-04-24T13:23:57;3.78;;;1.40;;
51614;SDS011;37695;52.960;6.188;2023-04-24T13:26:22;4.40;;;1.02;;
51614;SDS011;37695;52.960;6.188;2023-04-24T13:28:48;1.90;;;0.90;;
51614;SDS011;37695;52.960;6.188;2023-04-24T13:31:13;5.00;;;1.20;;
51614;SDS011;37695;52.960;6.188;2023-04-24T13:33:39;4.18;;;1.17;;
51614;SDS011;37695;52.960;6.188;2023-04-24T13:36:05;3.05;;;1.50;;
51614;SDS011;37695;52.960;6.188;2023-04-24T13:38:31;4.28;;;1.20;;
51614;SDS011;37695;52.960;6.188;2023-04-24T13:40:56;2.45;;;1.13;;
51614;SDS011;37695;52.960;6.188;2023-04-24T13:43:22;2.38;;;1.10;;
51614;SDS011;37695;52.960;6.188;2023-04-24T13:45:48;6.88;;;1.60;;
51614;SDS011;37695;52.960;6.188;2023-04-24T13:48:13;5.25;;;1.70;;
51614;SDS011;37695;52.960;6.188;2023-04-24T13:50:40;6.00;;;1.73;;
51614;SDS011;37695;52.960;6.188;2023-04-24T13:53:06;7.13;;;1.77;;
51614;SDS011;37695;52.960;6.188;2023-04-24T13:55:32;5.00;;;1.75;;
51614;SDS011;37695;52.960;6.188;2023-04-24T13:57:58;4.95;;;1.50;;
51614;SDS011;37695;52.960;6.188;2023-04-24T14:00:23;5.55;;;1.75;;
51614;SDS011;37695;52.960;6.188;2023-04-24T14:02:49;7.13;;;1.58;;
51614;SDS011;37695;52.960;6.188;2023-04-24T14:05:15;4.78;;;1.70;;
51614;SDS011;37695;52.960;6.188;2023-04-24T14:07:41;4.75;;;1.33;;
51614;SDS011;37695;52.960;6.188;2023-04-24T14:10:06;6.53;;;1.65;;
51614;SDS011;37695;52.960;6.188;2023-04-24T14:12:33;6.63;;;1.95;;
51614;SDS011;37695;52.960;6.188;2023-04-24T14:14:58;6.05;;;1.60;;
51614;SDS011;37695;52.960;6.188;2023-04-24T14:17:24;3.75;;;1.52;;
51614;SDS011;37695;52.960;6.188;2023-04-24T14:19:49;9.82;;;2.10;;
51614;SDS011;37695;52.960;6.188;2023-04-24T14:22:17;6.85;;;2.13;;
51614;SDS011;37695;52.960;6.188;2023-04-24T14:24:42;6.95;;;1.70;;
51614;SDS011;37695;52.960;6.188;2023-04-24T14:27:08;5.63;;;1.63;;
51614;SDS011;37695;52.960;6.188;2023-04-24T14:29:33;4.65;;;1.70;;
51614;SDS011;37695;52.960;6.188;2023-04-24T14:31:59;8.70;;;2.20;;
51614;SDS011;37695;52.960;6.188;2023-04-24T14:34:24;7.18;;;1.90;;
51614;SDS011;37695;52.960;6.188;2023-04-24T14:36:50;7.90;;;2.00;;
51614;SDS011;37695;52.960;6.188;2023-04-24T14:39:17;6.57;;;2.00;;
51614;SDS011;37695;52.960;6.188;2023-04-24T14:41:43;5.95;;;2.05;;
51614;SDS011;37695;52.960;6.188;2023-04-24T14:44:08;5.57;;;1.90;;
51614;SDS011;37695;52.960;6.188;2023-04-24T14:46:34;3.70;;;1.80;;
51614;SDS011;37695;52.960;6.188;2023-04-24T14:49:00;5.68;;;1.85;;
51614;SDS011;37695;52.960;6.188;2023-04-24T14:51:25;7.25;;;2.03;;
51614;SDS011;37695;52.960;6.188;2023-04-24T14:53:51;10.00;;;2.45;;
51614;SDS011;37695;52.960;6.188;2023-04-24T14:56:17;8.68;;;2.15;;
51614;SDS011;37695;52.960;6.188;2023-04-24T14:58:43;9.07;;;2.20;;
51614;SDS011;37695;52.960;6.188;2023-04-24T15:01:08;7.78;;;2.28;;
51614;SDS011;37695;52.960;6.188;2023-04-24T15:03:35;9.18;;;2.95;;